sensor_id;sensor_type;location;lat;lon;timestamp;temperature;humidity
54260;DHT22;40172;53.022;7.012;2023-07-13T00:01:48;14.80;99.90
54260;DHT22;40172;53.022;7.012;2023-07-13T00:04:19;14.80;99.90
54260;DHT22;40172;53.022;7.012;2023-07-13T00:06:47;14.80;99.90
54260;DHT22;40172;53.022;7.012;2023-07-13T00:09:13;14.80;99.90
54260;DHT22;40172;53.022;7.012;2023-07-13T00:11:40;14.70;99.90
54260;DHT22;40172;53.022;7.012;2023-07-13T00:14:06;14.80;99.90
54260;DHT22;40172;53.022;7.012;2023-07-13T00:16:34;14.80;99.90
54260;DHT22;40172;53.022;7.012;2023-07-13T00:19:00;14.80;99.90
54260;DHT22;40172;53.022;7.012;2023-07-13T00:21:26;14.80;99.90
54260;DHT22;40172;53.022;7.012;2023-07-13T00:23:52;14.80;99.90
54260;DHT22;40172;53.022;7.012;2023-07-13T00:26:17;14.80;99.90
54260;DHT22;40172;53.022;7.012;2023-07-13T00:28:43;14.90;99.90
54260;DHT22;40172;53.022;7.012;2023-07-13T00:31:11;14.90;99.90
54260;DHT22;40172;53.022;7.012;2023-07-13T00:33:36;14.90;99.90
54260;DHT22;40172;53.022;7.012;2023-07-13T00:36:03;14.90;99.90
54260;DHT22;40172;53.022;7.012;2023-07-13T00:38:29;15.00;99.90
54260;DHT22;40172;53.022;7.012;2023-07-13T00:40:55;15.00;99.90
54260;DHT22;40172;53.022;7.012;2023-07-13T00:43:22;15.00;99.90
54260;DHT22;40172;53.022;7.012;2023-07-13T00:48:20;15.00;99.90
54260;DHT22;40172;53.022;7.012;2023-07-13T00:50:49;15.00;99.90
54260;DHT22;40172;53.022;7.012;2023-07-13T00:53:17;15.00;99.90
54260;DHT22;40172;53.022;7.012;2023-07-13T00:55:43;15.00;99.90
54260;DHT22;40172;53.022;7.012;2023-07-13T00:58:09;15.00;99.90
54260;DHT22;40172;53.022;7.012;2023-07-13T01:00:36;15.00;99.90
54260;DHT22;40172;53.022;7.012;2023-07-13T01:03:04;15.00;99.90
54260;DHT22;40172;53.022;7.012;2023-07-13T01:05:32;15.10;99.90
54260;DHT22;40172;53.022;7.012;2023-07-13T01:07:59;15.10;99.90
54260;DHT22;40172;53.022;7.012;2023-07-13T01:10:26;15.10;99.90
54260;DHT22;40172;53.022;7.012;2023-07-13T01:12:53;15.10;99.90
54260;DHT22;40172;53.022;7.012;2023-07-13T01:18:09;15.20;99.90
54260;DHT22;40172;53.022;7.012;2023-07-13T01:23:11;15.20;99.90
54260;DHT22;40172;53.022;7.012;2023-07-13T01:25:38;15.20;99.90
54260;DHT22;40172;53.022;7.012;2023-07-13T01:28:06;15.30;99.90
54260;DHT22;40172;53.022;7.012;2023-07-13T01:30:35;15.20;99.90
54260;DHT22;40172;53.022;7.012;2023-07-13T01:33:01;15.30;99.90
54260;DHT22;40172;53.022;7.012;2023-07-13T01:35:27;15.30;99.90
54260;DHT22;40172;53.022;7.012;2023-07-13T01:37:53;15.30;99.90
54260;DHT22;40172;53.022;7.012;2023-07-13T01:40:20;15.30;99.90
54260;DHT22;40172;53.022;7.012;2023-07-13T01:42:45;15.30;99.90
54260;DHT22;40172;53.022;7.012;2023-07-13T01:45:11;15.30;99.90
54260;DHT22;40172;53.022;7.012;2023-07-13T01:47:37;15.30;99.90
54260;DHT22;40172;53.022;7.012;2023-07-13T01:50:03;15.30;99.90
54260;DHT22;40172;53.022;7.012;2023-07-13T01:52:29;15.30;99.90
54260;DHT22;40172;53.022;7.012;2023-07-13T01:54:55;15.30;99.90
54260;DHT22;40172;53.022;7.012;2023-07-13T01:57:20;15.40;99.90
54260;DHT22;40172;53.022;7.012;2023-07-13T01:59:46;15.40;99.90
54260;DHT22;40172;53.022;7.012;2023-07-13T02:02:12;15.40;99.90
54260;DHT22;40172;53.022;7.012;2023-07-13T02:04:37;15.40;99.90
54260;DHT22;40172;53.022;7.012;2023-07-13T02:07:03;15.40;99.90
54260;DHT22;40172;53.022;7.012;2023-07-13T02:09:29;15.40;99.90
54260;DHT22;40172;53.022;7.012;2023-07-13T02:11:54;15.40;99.90
54260;DHT22;40172;53.022;7.012;2023-07-13T02:14:20;15.40;99.90
54260;DHT22;40172;53.022;7.012;2023-07-13T02:16:46;15.40;99.90
54260;DHT22;40172;53.022;7.012;2023-07-13T02:19:14;15.30;99.90
54260;DHT22;40172;53.022;7.012;2023-07-13T02:21:40;15.30;99.90
54260;DHT22;40172;53.022;7.012;2023-07-13T02:24:05;15.30;99.90
54260;DHT22;40172;53.022;7.012;2023-07-13T02:26:31;15.30;99.90
54260;DHT22;40172;53.022;7.012;2023-07-13T02:28:57;15.30;99.90
54260;DHT22;40172;53.022;7.012;2023-07-13T02:31:23;15.30;99.90
54260;DHT22;40172;53.022;7.012;2023-07-13T02:33:48;15.30;99.90
54260;DHT22;40172;53.022;7.012;2023-07-13T02:36:14;15.30;99.90
54260;DHT22;40172;53.022;7.012;2023-07-13T02:38:42;15.30;99.90
54260;DHT22;40172;53.022;7.012;2023-07-13T02:41:08;15.30;99.90
54260;DHT22;40172;53.022;7.012;2023-07-13T02:43:35;15.30;99.90
54260;DHT22;40172;53.022;7.012;2023-07-13T02:46:02;15.30;99.90
54260;DHT22;40172;53.022;7.012;2023-07-13T02:48:37;15.30;99.90
54260;DHT22;40172;53.022;7.012;2023-07-13T02:51:04;15.30;99.90
54260;DHT22;40172;53.022;7.012;2023-07-13T02:53:30;15.30;99.90
54260;DHT22;40172;53.022;7.012;2023-07-13T02:55:55;15.30;99.90
54260;DHT22;40172;53.022;7.012;2023-07-13T02:58:22;15.30;99.90
54260;DHT22;40172;53.022;7.012;2023-07-13T03:00:48;15.20;99.90
54260;DHT22;40172;53.022;7.012;2023-07-13T03:03:16;15.20;99.90
54260;DHT22;40172;53.022;7.012;2023-07-13T03:05:43;15.20;99.90
54260;DHT22;40172;53.022;7.012;2023-07-13T03:08:10;15.20;99.90
54260;DHT22;40172;53.022;7.012;2023-07-13T03:10:36;15.20;99.90
54260;DHT22;40172;53.022;7.012;2023-07-13T03:13:02;15.20;99.90
54260;DHT22;40172;53.022;7.012;2023-07-13T03:15:28;15.10;99.90
54260;DHT22;40172;53.022;7.012;2023-07-13T03:17:53;15.10;99.90
54260;DHT22;40172;53.022;7.012;2023-07-13T03:20:19;15.10;99.90
54260;DHT22;40172;53.022;7.012;2023-07-13T03:22:45;15.10;99.90
54260;DHT22;40172;53.022;7.012;2023-07-13T03:25:11;15.10;99.90
54260;DHT22;40172;53.022;7.012;2023-07-13T03:27:37;15.00;99.90
54260;DHT22;40172;53.022;7.012;2023-07-13T03:30:04;15.10;99.90
54260;DHT22;40172;53.022;7.012;2023-07-13T03:32:30;15.00;99.90
54260;DHT22;40172;53.022;7.012;2023-07-13T03:34:56;15.00;99.90
54260;DHT22;40172;53.022;7.012;2023-07-13T03:37:22;15.00;99.90
54260;DHT22;40172;53.022;7.012;2023-07-13T03:39:47;15.10;99.90
54260;DHT22;40172;53.022;7.012;2023-07-13T03:42:14;15.00;99.90
54260;DHT22;40172;53.022;7.012;2023-07-13T03:44:40;15.00;99.90
54260;DHT22;40172;53.022;7.012;2023-07-13T03:47:06;15.10;99.90
54260;DHT22;40172;53.022;7.012;2023-07-13T03:49:34;15.10;99.90
54260;DHT22;40172;53.022;7.012;2023-07-13T03:52:00;15.10;99.90
54260;DHT22;40172;53.022;7.012;2023-07-13T03:54:26;15.10;99.90
54260;DHT22;40172;53.022;7.012;2023-07-13T03:56:52;15.10;99.90
54260;DHT22;40172;53.022;7.012;2023-07-13T03:59:18;15.10;99.90
54260;DHT22;40172;53.022;7.012;2023-07-13T04:01:44;15.10;99.90
54260;DHT22;40172;53.022;7.012;2023-07-13T04:04:10;15.10;99.90
54260;DHT22;40172;53.022;7.012;2023-07-13T04:06:35;15.20;99.90
54260;DHT22;40172;53.022;7.012;2023-07-13T04:09:03;15.10;99.90
54260;DHT22;40172;53.022;7.012;2023-07-13T04:11:31;15.10;99.90
54260;DHT22;40172;53.022;7.012;2023-07-13T04:13:57;15.10;99.90
54260;DHT22;40172;53.022;7.012;2023-07-13T04:16:23;15.00;99.90
54260;DHT22;40172;53.022;7.012;2023-07-13T04:18:50;15.10;99.90
54260;DHT22;40172;53.022;7.012;2023-07-13T04:21:20;15.00;99.90
54260;DHT22;40172;53.022;7.012;2023-07-13T04:23:45;15.00;99.90
54260;DHT22;40172;53.022;7.012;2023-07-13T04:26:11;15.00;99.90
54260;DHT22;40172;53.022;7.012;2023-07-13T04:28:37;15.00;99.90
54260;DHT22;40172;53.022;7.012;2023-07-13T04:31:02;15.10;99.90
54260;DHT22;40172;53.022;7.012;2023-07-13T04:33:28;15.10;99.90
54260;DHT22;40172;53.022;7.012;2023-07-13T04:35:55;15.10;99.90
54260;DHT22;40172;53.022;7.012;2023-07-13T04:38:27;15.20;99.90
54260;DHT22;40172;53.022;7.012;2023-07-13T04:40:55;15.20;99.90
54260;DHT22;40172;53.022;7.012;2023-07-13T04:43:20;15.30;99.90
54260;DHT22;40172;53.022;7.012;2023-07-13T04:45:46;15.40;99.90
54260;DHT22;40172;53.022;7.012;2023-07-13T04:48:12;15.40;99.90
54260;DHT22;40172;53.022;7.012;2023-07-13T04:50:38;15.40;99.90
54260;DHT22;40172;53.022;7.012;2023-07-13T04:53:04;15.40;99.90
54260;DHT22;40172;53.022;7.012;2023-07-13T04:55:30;15.40;99.90
54260;DHT22;40172;53.022;7.012;2023-07-13T04:57:57;15.40;99.90
54260;DHT22;40172;53.022;7.012;2023-07-13T05:00:24;15.40;99.90
54260;DHT22;40172;53.022;7.012;2023-07-13T05:02:50;15.40;99.90
54260;DHT22;40172;53.022;7.012;2023-07-13T05:05:16;15.40;99.90
54260;DHT22;40172;53.022;7.012;2023-07-13T05:07:42;15.40;99.90
54260;DHT22;40172;53.022;7.012;2023-07-13T05:10:08;15.50;99.90
54260;DHT22;40172;53.022;7.012;2023-07-13T05:12:34;15.50;99.90
54260;DHT22;40172;53.022;7.012;2023-07-13T05:15:00;15.50;99.90
54260;DHT22;40172;53.022;7.012;2023-07-13T05:17:26;15.50;99.90
54260;DHT22;40172;53.022;7.012;2023-07-13T05:19:52;15.50;99.90
54260;DHT22;40172;53.022;7.012;2023-07-13T05:22:17;15.50;99.90
54260;DHT22;40172;53.022;7.012;2023-07-13T05:24:43;15.60;99.90
54260;DHT22;40172;53.022;7.012;2023-07-13T05:27:09;15.70;99.90
54260;DHT22;40172;53.022;7.012;2023-07-13T05:29:34;15.80;99.90
54260;DHT22;40172;53.022;7.012;2023-07-13T05:32:00;15.80;99.90
54260;DHT22;40172;53.022;7.012;2023-07-13T05:34:26;15.90;99.90
54260;DHT22;40172;53.022;7.012;2023-07-13T05:36:52;16.00;99.90
54260;DHT22;40172;53.022;7.012;2023-07-13T05:39:18;16.10;99.90
54260;DHT22;40172;53.022;7.012;2023-07-13T05:41:44;16.20;99.90
54260;DHT22;40172;53.022;7.012;2023-07-13T05:44:10;16.30;99.90
54260;DHT22;40172;53.022;7.012;2023-07-13T05:46:35;16.40;99.90
54260;DHT22;40172;53.022;7.012;2023-07-13T05:49:01;16.50;99.90
54260;DHT22;40172;53.022;7.012;2023-07-13T05:51:27;16.50;99.90
54260;DHT22;40172;53.022;7.012;2023-07-13T05:53:52;16.50;99.90
54260;DHT22;40172;53.022;7.012;2023-07-13T05:56:18;16.50;99.90
54260;DHT22;40172;53.022;7.012;2023-07-13T05:58:44;16.50;99.90
54260;DHT22;40172;53.022;7.012;2023-07-13T06:01:12;16.60;99.90
54260;DHT22;40172;53.022;7.012;2023-07-13T06:03:38;16.60;99.90
54260;DHT22;40172;53.022;7.012;2023-07-13T06:06:08;16.70;99.90
54260;DHT22;40172;53.022;7.012;2023-07-13T06:08:34;16.80;99.90
54260;DHT22;40172;53.022;7.012;2023-07-13T06:11:24;16.80;99.90
54260;DHT22;40172;53.022;7.012;2023-07-13T06:13:50;16.90;99.90
54260;DHT22;40172;53.022;7.012;2023-07-13T06:16:16;17.00;99.90
54260;DHT22;40172;53.022;7.012;2023-07-13T06:18:42;17.10;99.90
54260;DHT22;40172;53.022;7.012;2023-07-13T06:21:26;17.20;99.90
54260;DHT22;40172;53.022;7.012;2023-07-13T06:23:52;17.30;99.90
54260;DHT22;40172;53.022;7.012;2023-07-13T06:26:21;17.30;99.90
54260;DHT22;40172;53.022;7.012;2023-07-13T06:28:48;17.50;99.90
54260;DHT22;40172;53.022;7.012;2023-07-13T06:31:14;17.50;99.90
54260;DHT22;40172;53.022;7.012;2023-07-13T06:33:40;17.70;99.90
54260;DHT22;40172;53.022;7.012;2023-07-13T06:36:07;17.70;99.90
54260;DHT22;40172;53.022;7.012;2023-07-13T06:38:33;17.90;99.90
54260;DHT22;40172;53.022;7.012;2023-07-13T06:40:59;17.90;99.90
54260;DHT22;40172;53.022;7.012;2023-07-13T06:43:25;18.00;99.90
54260;DHT22;40172;53.022;7.012;2023-07-13T06:45:54;18.10;99.90
54260;DHT22;40172;53.022;7.012;2023-07-13T06:48:20;18.20;99.90
54260;DHT22;40172;53.022;7.012;2023-07-13T06:50:47;18.30;99.90
54260;DHT22;40172;53.022;7.012;2023-07-13T06:53:13;18.50;99.90
54260;DHT22;40172;53.022;7.012;2023-07-13T06:55:39;18.60;99.90
54260;DHT22;40172;53.022;7.012;2023-07-13T06:58:05;18.70;99.90
54260;DHT22;40172;53.022;7.012;2023-07-13T07:00:31;18.70;99.90
54260;DHT22;40172;53.022;7.012;2023-07-13T07:02:57;18.80;99.90
54260;DHT22;40172;53.022;7.012;2023-07-13T07:05:23;18.80;99.90
54260;DHT22;40172;53.022;7.012;2023-07-13T07:07:53;18.90;99.90
54260;DHT22;40172;53.022;7.012;2023-07-13T07:10:20;19.10;99.90
54260;DHT22;40172;53.022;7.012;2023-07-13T07:12:46;19.10;99.90
54260;DHT22;40172;53.022;7.012;2023-07-13T07:15:12;19.10;99.90
54260;DHT22;40172;53.022;7.012;2023-07-13T07:17:38;19.10;99.90
54260;DHT22;40172;53.022;7.012;2023-07-13T07:20:04;19.30;99.90
54260;DHT22;40172;53.022;7.012;2023-07-13T07:22:30;19.40;99.90
54260;DHT22;40172;53.022;7.012;2023-07-13T07:24:56;19.60;99.90
54260;DHT22;40172;53.022;7.012;2023-07-13T07:27:23;19.70;99.90
54260;DHT22;40172;53.022;7.012;2023-07-13T07:29:49;19.80;99.90
54260;DHT22;40172;53.022;7.012;2023-07-13T07:32:14;19.90;99.90
54260;DHT22;40172;53.022;7.012;2023-07-13T07:34:40;20.00;99.90
54260;DHT22;40172;53.022;7.012;2023-07-13T07:37:06;20.00;99.90
54260;DHT22;40172;53.022;7.012;2023-07-13T07:39:32;20.00;99.90
54260;DHT22;40172;53.022;7.012;2023-07-13T07:41:58;19.90;99.90
54260;DHT22;40172;53.022;7.012;2023-07-13T07:44:24;19.90;99.90
54260;DHT22;40172;53.022;7.012;2023-07-13T07:46:50;19.80;99.90
54260;DHT22;40172;53.022;7.012;2023-07-13T07:49:15;19.80;99.90
54260;DHT22;40172;53.022;7.012;2023-07-13T07:51:41;19.70;99.90
54260;DHT22;40172;53.022;7.012;2023-07-13T07:54:07;19.70;99.90
54260;DHT22;40172;53.022;7.012;2023-07-13T07:56:33;19.60;99.90
54260;DHT22;40172;53.022;7.012;2023-07-13T07:58:59;19.60;99.90
54260;DHT22;40172;53.022;7.012;2023-07-13T08:01:24;19.70;99.90
54260;DHT22;40172;53.022;7.012;2023-07-13T08:03:50;19.70;99.90
54260;DHT22;40172;53.022;7.012;2023-07-13T08:06:16;19.70;99.90
54260;DHT22;40172;53.022;7.012;2023-07-13T08:08:42;19.60;99.90
54260;DHT22;40172;53.022;7.012;2023-07-13T08:11:10;19.60;99.90
54260;DHT22;40172;53.022;7.012;2023-07-13T08:13:37;19.60;99.90
54260;DHT22;40172;53.022;7.012;2023-07-13T08:16:04;19.60;99.90
54260;DHT22;40172;53.022;7.012;2023-07-13T08:18:30;19.70;99.90
54260;DHT22;40172;53.022;7.012;2023-07-13T08:20:56;19.60;99.90
54260;DHT22;40172;53.022;7.012;2023-07-13T08:23:22;19.50;99.90
54260;DHT22;40172;53.022;7.012;2023-07-13T08:25:52;19.30;99.90
54260;DHT22;40172;53.022;7.012;2023-07-13T08:28:20;19.20;99.90
54260;DHT22;40172;53.022;7.012;2023-07-13T08:30:45;19.00;99.90
54260;DHT22;40172;53.022;7.012;2023-07-13T08:33:21;18.90;99.90
54260;DHT22;40172;53.022;7.012;2023-07-13T08:35:49;18.80;99.90
54260;DHT22;40172;53.022;7.012;2023-07-13T08:38:16;18.70;99.90
54260;DHT22;40172;53.022;7.012;2023-07-13T08:40:42;18.60;99.90
54260;DHT22;40172;53.022;7.012;2023-07-13T08:43:23;18.60;99.90
54260;DHT22;40172;53.022;7.012;2023-07-13T08:45:54;18.50;99.90
54260;DHT22;40172;53.022;7.012;2023-07-13T08:48:35;18.50;99.90
54260;DHT22;40172;53.022;7.012;2023-07-13T08:53:48;18.40;99.90
54260;DHT22;40172;53.022;7.012;2023-07-13T08:56:25;18.40;99.90
54260;DHT22;40172;53.022;7.012;2023-07-13T08:58:58;18.50;99.90
54260;DHT22;40172;53.022;7.012;2023-07-13T09:04:08;18.40;99.90
54260;DHT22;40172;53.022;7.012;2023-07-13T09:06:43;18.50;99.90
54260;DHT22;40172;53.022;7.012;2023-07-13T09:12:27;18.50;99.90
54260;DHT22;40172;53.022;7.012;2023-07-13T09:14:58;18.30;99.90
54260;DHT22;40172;53.022;7.012;2023-07-13T09:17:29;18.20;99.90
54260;DHT22;40172;53.022;7.012;2023-07-13T09:20:01;18.10;99.90
54260;DHT22;40172;53.022;7.012;2023-07-13T09:22:31;18.00;99.90
54260;DHT22;40172;53.022;7.012;2023-07-13T09:27:39;17.60;99.90
54260;DHT22;40172;53.022;7.012;2023-07-13T09:32:45;17.20;99.90
54260;DHT22;40172;53.022;7.012;2023-07-13T09:35:17;17.00;99.90
54260;DHT22;40172;53.022;7.012;2023-07-13T09:37:45;16.90;99.90
54260;DHT22;40172;53.022;7.012;2023-07-13T09:40:21;16.90;99.90
54260;DHT22;40172;53.022;7.012;2023-07-13T09:42:53;16.90;99.90
54260;DHT22;40172;53.022;7.012;2023-07-13T09:45:28;16.90;99.90
54260;DHT22;40172;53.022;7.012;2023-07-13T09:48:15;17.10;99.90
54260;DHT22;40172;53.022;7.012;2023-07-13T09:50:42;17.30;99.90
54260;DHT22;40172;53.022;7.012;2023-07-13T09:53:16;17.50;99.90
54260;DHT22;40172;53.022;7.012;2023-07-13T09:55:45;17.70;99.90
54260;DHT22;40172;53.022;7.012;2023-07-13T09:58:18;17.80;99.90
54260;DHT22;40172;53.022;7.012;2023-07-13T10:01:05;18.00;99.90
54260;DHT22;40172;53.022;7.012;2023-07-13T10:03:33;18.10;99.90
54260;DHT22;40172;53.022;7.012;2023-07-13T10:06:15;18.20;99.90
54260;DHT22;40172;53.022;7.012;2023-07-13T10:08:41;18.20;99.90
54260;DHT22;40172;53.022;7.012;2023-07-13T10:11:29;18.20;99.90
54260;DHT22;40172;53.022;7.012;2023-07-13T10:14:11;18.00;99.90
54260;DHT22;40172;53.022;7.012;2023-07-13T10:16:38;17.90;99.90
54260;DHT22;40172;53.022;7.012;2023-07-13T10:19:21;17.90;99.90
54260;DHT22;40172;53.022;7.012;2023-07-13T10:21:55;17.90;99.90
54260;DHT22;40172;53.022;7.012;2023-07-13T10:24:27;17.80;99.90
54260;DHT22;40172;53.022;7.012;2023-07-13T10:27:20;17.80;99.90
54260;DHT22;40172;53.022;7.012;2023-07-13T10:30:17;18.10;99.90
54260;DHT22;40172;53.022;7.012;2023-07-13T10:32:45;18.40;99.90
54260;DHT22;40172;53.022;7.012;2023-07-13T10:35:14;18.60;99.90
54260;DHT22;40172;53.022;7.012;2023-07-13T10:37:45;18.80;99.90
54260;DHT22;40172;53.022;7.012;2023-07-13T10:40:41;19.00;99.90
54260;DHT22;40172;53.022;7.012;2023-07-13T10:43:19;19.30;99.90
54260;DHT22;40172;53.022;7.012;2023-07-13T10:45:47;19.50;99.90
54260;DHT22;40172;53.022;7.012;2023-07-13T10:48:16;19.80;99.90
54260;DHT22;40172;53.022;7.012;2023-07-13T10:50:49;20.10;99.90
54260;DHT22;40172;53.022;7.012;2023-07-13T10:53:22;20.40;99.90
54260;DHT22;40172;53.022;7.012;2023-07-13T10:58:29;21.00;99.90
54260;DHT22;40172;53.022;7.012;2023-07-13T11:01:04;21.20;99.90
54260;DHT22;40172;53.022;7.012;2023-07-13T11:03:38;21.30;99.90
54260;DHT22;40172;53.022;7.012;2023-07-13T11:06:15;21.40;99.90
54260;DHT22;40172;53.022;7.012;2023-07-13T11:18:49;20.10;99.90
54260;DHT22;40172;53.022;7.012;2023-07-13T11:21:18;19.80;99.90
54260;DHT22;40172;53.022;7.012;2023-07-13T11:23:51;19.50;99.90
54260;DHT22;40172;53.022;7.012;2023-07-13T11:26:40;19.30;99.90
54260;DHT22;40172;53.022;7.012;2023-07-13T11:29:32;19.10;99.90
54260;DHT22;40172;53.022;7.012;2023-07-13T11:32:01;18.90;99.90
54260;DHT22;40172;53.022;7.012;2023-07-13T11:34:42;18.80;99.90
54260;DHT22;40172;53.022;7.012;2023-07-13T11:37:12;18.70;99.90
54260;DHT22;40172;53.022;7.012;2023-07-13T11:39:42;18.60;99.90
54260;DHT22;40172;53.022;7.012;2023-07-13T11:42:13;18.50;99.90
54260;DHT22;40172;53.022;7.012;2023-07-13T11:44:48;18.40;99.90
54260;DHT22;40172;53.022;7.012;2023-07-13T11:47:21;18.40;99.90
54260;DHT22;40172;53.022;7.012;2023-07-13T11:49:55;18.30;99.90
54260;DHT22;40172;53.022;7.012;2023-07-13T11:52:36;18.30;99.90
54260;DHT22;40172;53.022;7.012;2023-07-13T11:55:08;18.20;99.90
54260;DHT22;40172;53.022;7.012;2023-07-13T11:57:47;18.10;99.90
54260;DHT22;40172;53.022;7.012;2023-07-13T12:00:20;18.20;99.90
54260;DHT22;40172;53.022;7.012;2023-07-13T12:02:49;18.40;99.90
54260;DHT22;40172;53.022;7.012;2023-07-13T12:05:17;18.70;99.90
54260;DHT22;40172;53.022;7.012;2023-07-13T12:07:43;19.00;99.90
54260;DHT22;40172;53.022;7.012;2023-07-13T12:13:02;19.50;99.90
54260;DHT22;40172;53.022;7.012;2023-07-13T12:15:48;19.80;99.90
54260;DHT22;40172;53.022;7.012;2023-07-13T12:18:21;20.00;99.90
54260;DHT22;40172;53.022;7.012;2023-07-13T12:20:50;20.30;99.90
54260;DHT22;40172;53.022;7.012;2023-07-13T12:25:51;20.30;99.90
54260;DHT22;40172;53.022;7.012;2023-07-13T12:31:05;20.50;99.90
54260;DHT22;40172;53.022;7.012;2023-07-13T12:33:33;20.60;99.90
54260;DHT22;40172;53.022;7.012;2023-07-13T12:36:05;20.80;99.90
54260;DHT22;40172;53.022;7.012;2023-07-13T12:38:32;21.00;99.90
54260;DHT22;40172;53.022;7.012;2023-07-13T12:40:58;21.10;99.90
54260;DHT22;40172;53.022;7.012;2023-07-13T12:43:25;21.30;99.90
54260;DHT22;40172;53.022;7.012;2023-07-13T12:46:03;21.40;99.90
54260;DHT22;40172;53.022;7.012;2023-07-13T12:48:30;21.40;99.90
54260;DHT22;40172;53.022;7.012;2023-07-13T12:51:03;21.60;99.90
54260;DHT22;40172;53.022;7.012;2023-07-13T12:53:30;21.60;99.90
54260;DHT22;40172;53.022;7.012;2023-07-13T12:56:02;21.60;99.90
54260;DHT22;40172;53.022;7.012;2023-07-13T12:58:39;21.50;99.90
54260;DHT22;40172;53.022;7.012;2023-07-13T13:01:08;21.30;99.90
54260;DHT22;40172;53.022;7.012;2023-07-13T13:03:37;21.20;99.90
54260;DHT22;40172;53.022;7.012;2023-07-13T13:08:55;21.00;99.90
54260;DHT22;40172;53.022;7.012;2023-07-13T13:11:22;21.00;99.90
54260;DHT22;40172;53.022;7.012;2023-07-13T13:13:49;20.90;99.90
54260;DHT22;40172;53.022;7.012;2023-07-13T13:18:55;21.20;99.90
54260;DHT22;40172;53.022;7.012;2023-07-13T13:21:23;21.50;99.90
54260;DHT22;40172;53.022;7.012;2023-07-13T13:23:49;21.50;99.90
54260;DHT22;40172;53.022;7.012;2023-07-13T13:26:16;21.40;99.90
54260;DHT22;40172;53.022;7.012;2023-07-13T13:28:43;21.50;99.90
54260;DHT22;40172;53.022;7.012;2023-07-13T13:31:13;21.60;99.90
54260;DHT22;40172;53.022;7.012;2023-07-13T13:33:42;21.70;99.90
54260;DHT22;40172;53.022;7.012;2023-07-13T13:36:18;21.70;99.90
54260;DHT22;40172;53.022;7.012;2023-07-13T13:38:44;21.60;99.90
54260;DHT22;40172;53.022;7.012;2023-07-13T13:41:12;21.50;99.90
54260;DHT22;40172;53.022;7.012;2023-07-13T13:43:39;21.50;99.90
54260;DHT22;40172;53.022;7.012;2023-07-13T13:46:20;21.70;99.90
54260;DHT22;40172;53.022;7.012;2023-07-13T13:48:48;21.90;99.90
54260;DHT22;40172;53.022;7.012;2023-07-13T13:51:19;22.00;99.90
54260;DHT22;40172;53.022;7.012;2023-07-13T13:53:46;21.90;99.90
54260;DHT22;40172;53.022;7.012;2023-07-13T13:56:13;22.00;99.90
54260;DHT22;40172;53.022;7.012;2023-07-13T13:58:39;21.90;99.90
54260;DHT22;40172;53.022;7.012;2023-07-13T14:01:14;21.70;99.90
54260;DHT22;40172;53.022;7.012;2023-07-13T14:03:41;21.50;99.90
54260;DHT22;40172;53.022;7.012;2023-07-13T14:06:11;21.30;99.90
54260;DHT22;40172;53.022;7.012;2023-07-13T14:08:37;21.20;99.90
54260;DHT22;40172;53.022;7.012;2023-07-13T14:11:03;21.30;99.90
54260;DHT22;40172;53.022;7.012;2023-07-13T14:13:38;21.50;99.90
54260;DHT22;40172;53.022;7.012;2023-07-13T14:16:15;21.70;99.90
54260;DHT22;40172;53.022;7.012;2023-07-13T14:18:46;21.60;98.70
54260;DHT22;40172;53.022;7.012;2023-07-13T14:21:17;21.60;98.70
54260;DHT22;40172;53.022;7.012;2023-07-13T14:23:44;21.80;99.90
54260;DHT22;40172;53.022;7.012;2023-07-13T14:26:20;21.90;99.40
54260;DHT22;40172;53.022;7.012;2023-07-13T14:28:52;21.90;99.10
54260;DHT22;40172;53.022;7.012;2023-07-13T14:31:18;21.80;98.80
54260;DHT22;40172;53.022;7.012;2023-07-13T14:33:45;22.10;98.80
54260;DHT22;40172;53.022;7.012;2023-07-13T14:38:46;22.10;99.10
54260;DHT22;40172;53.022;7.012;2023-07-13T14:41:12;22.20;98.90
54260;DHT22;40172;53.022;7.012;2023-07-13T14:43:37;22.10;99.00
54260;DHT22;40172;53.022;7.012;2023-07-13T14:46:03;21.90;98.90
54260;DHT22;40172;53.022;7.012;2023-07-13T14:48:30;21.70;99.70
54260;DHT22;40172;53.022;7.012;2023-07-13T14:50:59;21.60;99.90
54260;DHT22;40172;53.022;7.012;2023-07-13T14:53:26;21.60;99.90
54260;DHT22;40172;53.022;7.012;2023-07-13T14:55:53;21.60;99.90
54260;DHT22;40172;53.022;7.012;2023-07-13T14:58:19;21.60;99.90
54260;DHT22;40172;53.022;7.012;2023-07-13T15:00:45;21.60;99.90
54260;DHT22;40172;53.022;7.012;2023-07-13T15:03:21;21.70;99.80
54260;DHT22;40172;53.022;7.012;2023-07-13T15:05:48;21.70;99.90
54260;DHT22;40172;53.022;7.012;2023-07-13T15:08:15;21.60;99.90
54260;DHT22;40172;53.022;7.012;2023-07-13T15:10:41;21.60;99.90
54260;DHT22;40172;53.022;7.012;2023-07-13T15:13:18;21.80;99.90
54260;DHT22;40172;53.022;7.012;2023-07-13T15:15:52;21.70;99.50
54260;DHT22;40172;53.022;7.012;2023-07-13T15:18:21;21.60;99.20
54260;DHT22;40172;53.022;7.012;2023-07-13T15:20:48;21.70;99.30
54260;DHT22;40172;53.022;7.012;2023-07-13T15:23:15;21.80;99.50
54260;DHT22;40172;53.022;7.012;2023-07-13T15:25:43;21.80;99.00
54260;DHT22;40172;53.022;7.012;2023-07-13T15:28:09;21.90;99.10
54260;DHT22;40172;53.022;7.012;2023-07-13T15:30:42;21.80;98.80
54260;DHT22;40172;53.022;7.012;2023-07-13T15:35:37;21.90;98.70
54260;DHT22;40172;53.022;7.012;2023-07-13T15:38:14;21.90;98.60
54260;DHT22;40172;53.022;7.012;2023-07-13T15:40:41;22.00;97.90
54260;DHT22;40172;53.022;7.012;2023-07-13T15:43:14;22.00;98.90
54260;DHT22;40172;53.022;7.012;2023-07-13T15:45:40;21.90;97.70
54260;DHT22;40172;53.022;7.012;2023-07-13T15:48:19;21.90;97.60
54260;DHT22;40172;53.022;7.012;2023-07-13T15:50:52;21.90;98.60
54260;DHT22;40172;53.022;7.012;2023-07-13T15:53:24;22.00;98.40
54260;DHT22;40172;53.022;7.012;2023-07-13T15:55:51;22.10;97.80
54260;DHT22;40172;53.022;7.012;2023-07-13T15:58:18;22.20;97.60
54260;DHT22;40172;53.022;7.012;2023-07-13T16:00:44;22.30;95.90
54260;DHT22;40172;53.022;7.012;2023-07-13T16:03:11;22.30;96.20
54260;DHT22;40172;53.022;7.012;2023-07-13T16:05:37;22.30;96.70
54260;DHT22;40172;53.022;7.012;2023-07-13T16:08:05;22.20;95.60
54260;DHT22;40172;53.022;7.012;2023-07-13T16:10:34;22.00;95.90
54260;DHT22;40172;53.022;7.012;2023-07-13T16:13:03;21.80;95.60
54260;DHT22;40172;53.022;7.012;2023-07-13T16:15:30;21.60;95.60
54260;DHT22;40172;53.022;7.012;2023-07-13T16:17:57;21.80;96.20
54260;DHT22;40172;53.022;7.012;2023-07-13T16:20:23;21.90;96.10
54260;DHT22;40172;53.022;7.012;2023-07-13T16:22:53;22.10;97.00
54260;DHT22;40172;53.022;7.012;2023-07-13T16:25:22;22.30;96.20
54260;DHT22;40172;53.022;7.012;2023-07-13T16:27:50;22.60;95.70
54260;DHT22;40172;53.022;7.012;2023-07-13T16:30:21;22.80;94.70
54260;DHT22;40172;53.022;7.012;2023-07-13T16:32:49;23.00;94.10